sensor_id;sensor_type;location;lat;lon;timestamp;temperature;humidity
336;DHT22;156;48.738;9.228;2023-07-13T00:01:27;19.70;1.00
336;DHT22;156;48.738;9.228;2023-07-13T00:03:55;19.60;1.00
336;DHT22;156;48.738;9.228;2023-07-13T00:06:24;19.60;1.00
336;DHT22;156;48.738;9.228;2023-07-13T00:08:54;19.60;1.00
336;DHT22;156;48.738;9.228;2023-07-13T00:11:23;19.50;1.00
336;DHT22;156;48.738;9.228;2023-07-13T00:13:51;19.50;1.00
336;DHT22;156;48.738;9.228;2023-07-13T00:16:18;19.50;1.00
336;DHT22;156;48.738;9.228;2023-07-13T00:18:45;19.50;1.00
336;DHT22;156;48.738;9.228;2023-07-13T00:21:12;19.40;1.00
336;DHT22;156;48.738;9.228;2023-07-13T00:23:42;19.50;1.00
336;DHT22;156;48.738;9.228;2023-07-13T00:26:10;19.40;1.00
336;DHT22;156;48.738;9.228;2023-07-13T00:28:38;19.40;1.00
336;DHT22;156;48.738;9.228;2023-07-13T00:31:08;19.20;1.00
336;DHT22;156;48.738;9.228;2023-07-13T00:33:35;19.20;1.00
336;DHT22;156;48.738;9.228;2023-07-13T00:36:03;19.10;1.00
336;DHT22;156;48.738;9.228;2023-07-13T00:38:33;19.10;1.00
336;DHT22;156;48.738;9.228;2023-07-13T00:41:02;19.10;1.00
336;DHT22;156;48.738;9.228;2023-07-13T00:43:30;19.10;1.00
336;DHT22;156;48.738;9.228;2023-07-13T00:46:31;19.00;1.00
336;DHT22;156;48.738;9.228;2023-07-13T00:49:00;18.90;1.00
336;DHT22;156;48.738;9.228;2023-07-13T00:51:32;18.90;1.00
336;DHT22;156;48.738;9.228;2023-07-13T00:54:05;18.90;1.00
336;DHT22;156;48.738;9.228;2023-07-13T00:56:34;18.80;1.00
336;DHT22;156;48.738;9.228;2023-07-13T00:59:03;18.80;1.00
336;DHT22;156;48.738;9.228;2023-07-13T01:01:31;18.80;1.00
336;DHT22;156;48.738;9.228;2023-07-13T01:04:00;18.80;1.00
336;DHT22;156;48.738;9.228;2023-07-13T01:06:27;18.80;1.00
336;DHT22;156;48.738;9.228;2023-07-13T01:08:56;18.80;1.00
336;DHT22;156;48.738;9.228;2023-07-13T01:11:24;18.70;1.00
336;DHT22;156;48.738;9.228;2023-07-13T01:13:55;18.70;1.00
336;DHT22;156;48.738;9.228;2023-07-13T01:16:25;18.40;1.00
336;DHT22;156;48.738;9.228;2023-07-13T01:18:52;18.70;1.00
336;DHT22;156;48.738;9.228;2023-07-13T01:21:21;18.70;1.00
336;DHT22;156;48.738;9.228;2023-07-13T01:23:48;18.70;1.00
336;DHT22;156;48.738;9.228;2023-07-13T01:26:17;18.70;1.00
336;DHT22;156;48.738;9.228;2023-07-13T01:28:44;18.60;1.00
336;DHT22;156;48.738;9.228;2023-07-13T01:31:11;18.60;1.00
336;DHT22;156;48.738;9.228;2023-07-13T01:33:39;18.60;1.00
336;DHT22;156;48.738;9.228;2023-07-13T01:36:06;18.60;1.00
336;DHT22;156;48.738;9.228;2023-07-13T01:38:37;18.60;1.00
336;DHT22;156;48.738;9.228;2023-07-13T01:41:07;18.60;1.00
336;DHT22;156;48.738;9.228;2023-07-13T01:43:36;18.70;1.00
336;DHT22;156;48.738;9.228;2023-07-13T01:46:03;18.70;1.00
336;DHT22;156;48.738;9.228;2023-07-13T01:48:33;18.70;1.00
336;DHT22;156;48.738;9.228;2023-07-13T01:51:00;18.70;1.00
336;DHT22;156;48.738;9.228;2023-07-13T01:53:27;18.60;1.00
336;DHT22;156;48.738;9.228;2023-07-13T01:55:55;18.60;1.00
336;DHT22;156;48.738;9.228;2023-07-13T01:58:22;18.60;1.00
336;DHT22;156;48.738;9.228;2023-07-13T02:00:50;18.70;1.00
336;DHT22;156;48.738;9.228;2023-07-13T02:03:18;18.70;1.00
336;DHT22;156;48.738;9.228;2023-07-13T02:05:45;18.70;1.00
336;DHT22;156;48.738;9.228;2023-07-13T02:08:12;18.60;1.00
336;DHT22;156;48.738;9.228;2023-07-13T02:10:39;18.60;1.00
336;DHT22;156;48.738;9.228;2023-07-13T02:13:07;18.60;1.00
336;DHT22;156;48.738;9.228;2023-07-13T02:15:37;18.50;1.00
336;DHT22;156;48.738;9.228;2023-07-13T02:18:04;18.50;1.00
336;DHT22;156;48.738;9.228;2023-07-13T02:20:31;18.40;1.00
336;DHT22;156;48.738;9.228;2023-07-13T02:22:59;18.40;1.00
336;DHT22;156;48.738;9.228;2023-07-13T02:25:26;18.40;1.00
336;DHT22;156;48.738;9.228;2023-07-13T02:27:52;18.30;1.00
336;DHT22;156;48.738;9.228;2023-07-13T02:30:21;18.30;1.00
336;DHT22;156;48.738;9.228;2023-07-13T02:32:50;18.20;1.00
336;DHT22;156;48.738;9.228;2023-07-13T02:35:17;18.20;1.00
336;DHT22;156;48.738;9.228;2023-07-13T02:37:44;18.30;1.00
336;DHT22;156;48.738;9.228;2023-07-13T02:40:11;18.20;1.00
336;DHT22;156;48.738;9.228;2023-07-13T02:42:38;18.20;1.00
336;DHT22;156;48.738;9.228;2023-07-13T02:45:11;18.20;1.00
336;DHT22;156;48.738;9.228;2023-07-13T02:47:41;18.20;1.00
336;DHT22;156;48.738;9.228;2023-07-13T02:50:10;18.10;1.00
336;DHT22;156;48.738;9.228;2023-07-13T02:52:39;18.10;1.00
336;DHT22;156;48.738;9.228;2023-07-13T02:55:07;18.00;1.00
336;DHT22;156;48.738;9.228;2023-07-13T02:57:34;18.00;1.00
336;DHT22;156;48.738;9.228;2023-07-13T03:00:02;18.00;1.00
336;DHT22;156;48.738;9.228;2023-07-13T03:02:31;18.00;1.00
336;DHT22;156;48.738;9.228;2023-07-13T03:05:00;18.00;1.00
336;DHT22;156;48.738;9.228;2023-07-13T03:07:27;18.00;1.00
336;DHT22;156;48.738;9.228;2023-07-13T03:09:55;18.00;1.00
336;DHT22;156;48.738;9.228;2023-07-13T03:12:22;18.00;1.00
336;DHT22;156;48.738;9.228;2023-07-13T03:14:49;17.90;1.00
336;DHT22;156;48.738;9.228;2023-07-13T03:17:16;17.90;1.00
336;DHT22;156;48.738;9.228;2023-07-13T03:19:45;17.90;1.00
336;DHT22;156;48.738;9.228;2023-07-13T03:22:16;17.80;1.00
336;DHT22;156;48.738;9.228;2023-07-13T03:24:43;17.70;1.00
336;DHT22;156;48.738;9.228;2023-07-13T03:27:10;17.70;1.00
336;DHT22;156;48.738;9.228;2023-07-13T03:29:37;17.80;1.00
336;DHT22;156;48.738;9.228;2023-07-13T03:32:05;17.70;1.00
336;DHT22;156;48.738;9.228;2023-07-13T03:34:32;17.70;1.00
336;DHT22;156;48.738;9.228;2023-07-13T03:36:59;17.80;1.00
336;DHT22;156;48.738;9.228;2023-07-13T03:39:27;17.70;1.00
336;DHT22;156;48.738;9.228;2023-07-13T03:41:54;17.70;1.00
336;DHT22;156;48.738;9.228;2023-07-13T03:44:21;17.80;1.00
336;DHT22;156;48.738;9.228;2023-07-13T03:46:48;17.80;1.00
336;DHT22;156;48.738;9.228;2023-07-13T03:49:15;17.90;1.00
336;DHT22;156;48.738;9.228;2023-07-13T03:51:42;17.90;1.00
336;DHT22;156;48.738;9.228;2023-07-13T03:54:09;18.00;1.00
336;DHT22;156;48.738;9.228;2023-07-13T03:56:37;18.10;1.00
336;DHT22;156;48.738;9.228;2023-07-13T03:59:04;18.10;1.00
336;DHT22;156;48.738;9.228;2023-07-13T04:01:31;18.10;1.00
336;DHT22;156;48.738;9.228;2023-07-13T04:03:58;18.10;1.00
336;DHT22;156;48.738;9.228;2023-07-13T04:06:28;18.20;1.00
336;DHT22;156;48.738;9.228;2023-07-13T04:08:56;18.30;1.00
336;DHT22;156;48.738;9.228;2023-07-13T04:11:26;18.30;1.00
336;DHT22;156;48.738;9.228;2023-07-13T04:13:56;18.20;1.00
336;DHT22;156;48.738;9.228;2023-07-13T04:16:23;18.20;1.00
336;DHT22;156;48.738;9.228;2023-07-13T04:18:51;18.10;1.00
336;DHT22;156;48.738;9.228;2023-07-13T04:21:21;18.10;1.00
336;DHT22;156;48.738;9.228;2023-07-13T04:23:49;18.10;1.00
336;DHT22;156;48.738;9.228;2023-07-13T04:26:16;18.10;1.00
336;DHT22;156;48.738;9.228;2023-07-13T04:28:47;18.40;1.00
336;DHT22;156;48.738;9.228;2023-07-13T04:31:16;18.30;1.00
336;DHT22;156;48.738;9.228;2023-07-13T04:33:43;18.30;1.00
336;DHT22;156;48.738;9.228;2023-07-13T04:36:11;18.30;1.00
336;DHT22;156;48.738;9.228;2023-07-13T04:38:38;18.40;1.00
336;DHT22;156;48.738;9.228;2023-07-13T04:41:07;18.40;1.00
336;DHT22;156;48.738;9.228;2023-07-13T04:43:35;18.30;1.00
336;DHT22;156;48.738;9.228;2023-07-13T04:46:07;18.30;1.00
336;DHT22;156;48.738;9.228;2023-07-13T04:48:42;18.30;1.00
336;DHT22;156;48.738;9.228;2023-07-13T04:51:09;18.30;1.00
336;DHT22;156;48.738;9.228;2023-07-13T04:53:39;18.20;1.00
336;DHT22;156;48.738;9.228;2023-07-13T04:56:06;18.20;1.00
336;DHT22;156;48.738;9.228;2023-07-13T04:58:34;18.20;1.00
336;DHT22;156;48.738;9.228;2023-07-13T05:01:05;18.20;1.00
336;DHT22;156;48.738;9.228;2023-07-13T05:03:34;18.10;1.00
336;DHT22;156;48.738;9.228;2023-07-13T05:06:05;18.10;1.00
336;DHT22;156;48.738;9.228;2023-07-13T05:08:33;18.10;1.00
336;DHT22;156;48.738;9.228;2023-07-13T05:11:05;18.10;1.00
336;DHT22;156;48.738;9.228;2023-07-13T05:13:32;18.10;1.00
336;DHT22;156;48.738;9.228;2023-07-13T05:16:01;18.10;1.00
336;DHT22;156;48.738;9.228;2023-07-13T05:18:29;18.10;1.00
336;DHT22;156;48.738;9.228;2023-07-13T05:21:00;18.10;1.00
336;DHT22;156;48.738;9.228;2023-07-13T05:23:29;18.20;1.00
336;DHT22;156;48.738;9.228;2023-07-13T05:25:57;18.20;1.00
336;DHT22;156;48.738;9.228;2023-07-13T05:28:27;18.20;1.00
336;DHT22;156;48.738;9.228;2023-07-13T05:30:55;18.20;1.00
336;DHT22;156;48.738;9.228;2023-07-13T05:33:24;18.30;1.00
336;DHT22;156;48.738;9.228;2023-07-13T05:35:51;18.40;1.00
336;DHT22;156;48.738;9.228;2023-07-13T05:38:19;18.40;1.00
336;DHT22;156;48.738;9.228;2023-07-13T05:40:49;18.40;1.00
336;DHT22;156;48.738;9.228;2023-07-13T05:43:17;18.40;1.00
336;DHT22;156;48.738;9.228;2023-07-13T05:45:45;18.50;1.00
336;DHT22;156;48.738;9.228;2023-07-13T05:48:13;18.40;1.00
336;DHT22;156;48.738;9.228;2023-07-13T05:50:48;18.40;1.00
336;DHT22;156;48.738;9.228;2023-07-13T05:53:17;18.50;1.00
336;DHT22;156;48.738;9.228;2023-07-13T05:55:45;18.40;1.00
336;DHT22;156;48.738;9.228;2023-07-13T05:58:17;18.40;1.00
336;DHT22;156;48.738;9.228;2023-07-13T06:00:47;18.40;1.00
336;DHT22;156;48.738;9.228;2023-07-13T06:03:15;18.40;1.00
336;DHT22;156;48.738;9.228;2023-07-13T06:05:42;18.40;1.00
336;DHT22;156;48.738;9.228;2023-07-13T06:08:10;18.40;1.00
336;DHT22;156;48.738;9.228;2023-07-13T06:10:38;18.50;1.00
336;DHT22;156;48.738;9.228;2023-07-13T06:13:06;18.50;1.00
336;DHT22;156;48.738;9.228;2023-07-13T06:21:42;18.80;1.00
336;DHT22;156;48.738;9.228;2023-07-13T06:27:14;18.80;1.00
336;DHT22;156;48.738;9.228;2023-07-13T06:30:07;18.70;1.00
336;DHT22;156;48.738;9.228;2023-07-13T06:32:43;18.60;1.00
336;DHT22;156;48.738;9.228;2023-07-13T06:35:21;18.70;1.00
336;DHT22;156;48.738;9.228;2023-07-13T06:38:06;18.80;1.00
336;DHT22;156;48.738;9.228;2023-07-13T06:40:47;18.70;1.00
336;DHT22;156;48.738;9.228;2023-07-13T06:43:34;18.50;1.00
336;DHT22;156;48.738;9.228;2023-07-13T06:46:12;18.90;1.00
336;DHT22;156;48.738;9.228;2023-07-13T06:48:53;18.90;1.00
336;DHT22;156;48.738;9.228;2023-07-13T06:51:23;19.00;1.00
336;DHT22;156;48.738;9.228;2023-07-13T06:53:51;19.00;1.00
336;DHT22;156;48.738;9.228;2023-07-13T06:56:20;19.10;1.00
336;DHT22;156;48.738;9.228;2023-07-13T06:58:47;19.10;1.00
336;DHT22;156;48.738;9.228;2023-07-13T07:01:14;19.20;1.00
336;DHT22;156;48.738;9.228;2023-07-13T07:03:42;19.40;1.00
336;DHT22;156;48.738;9.228;2023-07-13T07:06:14;19.50;1.00
336;DHT22;156;48.738;9.228;2023-07-13T07:08:46;19.60;1.00
336;DHT22;156;48.738;9.228;2023-07-13T07:11:16;19.60;1.00
336;DHT22;156;48.738;9.228;2023-07-13T07:13:44;19.60;1.00
336;DHT22;156;48.738;9.228;2023-07-13T07:16:13;19.60;1.00
336;DHT22;156;48.738;9.228;2023-07-13T07:18:43;19.70;1.00
336;DHT22;156;48.738;9.228;2023-07-13T07:21:12;19.70;1.00
336;DHT22;156;48.738;9.228;2023-07-13T07:23:41;19.80;1.00
336;DHT22;156;48.738;9.228;2023-07-13T07:26:10;19.80;1.00
336;DHT22;156;48.738;9.228;2023-07-13T07:28:40;19.80;1.00
336;DHT22;156;48.738;9.228;2023-07-13T07:31:08;19.80;1.00
336;DHT22;156;48.738;9.228;2023-07-13T07:33:37;19.80;1.00
336;DHT22;156;48.738;9.228;2023-07-13T07:36:05;18.70;1.00
336;DHT22;156;48.738;9.228;2023-07-13T07:38:32;19.90;1.00
336;DHT22;156;48.738;9.228;2023-07-13T07:41:02;20.00;1.00
336;DHT22;156;48.738;9.228;2023-07-13T07:43:32;20.10;1.00
336;DHT22;156;48.738;9.228;2023-07-13T07:46:00;20.20;1.00
336;DHT22;156;48.738;9.228;2023-07-13T07:48:27;20.30;1.00
336;DHT22;156;48.738;9.228;2023-07-13T07:50:57;20.40;1.00
336;DHT22;156;48.738;9.228;2023-07-13T07:53:24;20.40;1.00
336;DHT22;156;48.738;9.228;2023-07-13T07:55:51;20.50;1.00
336;DHT22;156;48.738;9.228;2023-07-13T07:58:19;20.60;1.00
336;DHT22;156;48.738;9.228;2023-07-13T08:00:47;20.70;1.00
336;DHT22;156;48.738;9.228;2023-07-13T08:03:15;20.60;1.00
336;DHT22;156;48.738;9.228;2023-07-13T08:05:42;20.70;1.00
336;DHT22;156;48.738;9.228;2023-07-13T08:08:10;20.90;1.00
336;DHT22;156;48.738;9.228;2023-07-13T08:10:38;20.50;1.00
336;DHT22;156;48.738;9.228;2023-07-13T08:13:06;20.60;1.00
336;DHT22;156;48.738;9.228;2023-07-13T08:15:34;20.60;1.00
336;DHT22;156;48.738;9.228;2023-07-13T08:18:03;20.80;1.00
336;DHT22;156;48.738;9.228;2023-07-13T08:20:30;21.00;1.00
336;DHT22;156;48.738;9.228;2023-07-13T08:23:00;21.10;1.00
336;DHT22;156;48.738;9.228;2023-07-13T08:25:27;21.00;1.00
336;DHT22;156;48.738;9.228;2023-07-13T08:27:55;21.00;1.00
336;DHT22;156;48.738;9.228;2023-07-13T08:30:22;21.10;1.00
336;DHT22;156;48.738;9.228;2023-07-13T08:32:50;21.20;1.00
336;DHT22;156;48.738;9.228;2023-07-13T08:35:20;21.30;1.00
336;DHT22;156;48.738;9.228;2023-07-13T08:37:47;21.30;1.00
336;DHT22;156;48.738;9.228;2023-07-13T08:40:15;21.50;1.00
336;DHT22;156;48.738;9.228;2023-07-13T08:42:46;21.50;1.00
336;DHT22;156;48.738;9.228;2023-07-13T08:45:21;21.50;1.00
336;DHT22;156;48.738;9.228;2023-07-13T08:47:52;21.60;1.00
336;DHT22;156;48.738;9.228;2023-07-13T08:50:25;21.60;1.00
336;DHT22;156;48.738;9.228;2023-07-13T08:52:55;21.50;1.00
336;DHT22;156;48.738;9.228;2023-07-13T08:55:28;21.70;1.00
336;DHT22;156;48.738;9.228;2023-07-13T08:58:01;22.00;1.00
336;DHT22;156;48.738;9.228;2023-07-13T09:00:37;21.90;1.00
336;DHT22;156;48.738;9.228;2023-07-13T09:03:16;22.00;1.00
336;DHT22;156;48.738;9.228;2023-07-13T09:05:51;21.90;1.00
336;DHT22;156;48.738;9.228;2023-07-13T09:08:44;21.90;1.00
336;DHT22;156;48.738;9.228;2023-07-13T09:11:27;21.80;1.00
336;DHT22;156;48.738;9.228;2023-07-13T09:14:01;21.60;1.00
336;DHT22;156;48.738;9.228;2023-07-13T09:16:30;21.60;1.00
336;DHT22;156;48.738;9.228;2023-07-13T09:19:04;21.60;1.00
336;DHT22;156;48.738;9.228;2023-07-13T09:21:38;22.30;1.00
336;DHT22;156;48.738;9.228;2023-07-13T09:24:28;22.00;1.00
336;DHT22;156;48.738;9.228;2023-07-13T09:26:57;22.50;1.00
336;DHT22;156;48.738;9.228;2023-07-13T09:29:29;22.40;1.00
336;DHT22;156;48.738;9.228;2023-07-13T09:32:02;22.70;1.00
336;DHT22;156;48.738;9.228;2023-07-13T09:34:32;22.70;1.00
336;DHT22;156;48.738;9.228;2023-07-13T09:37:02;22.70;1.00
336;DHT22;156;48.738;9.228;2023-07-13T09:39:35;22.50;1.00
336;DHT22;156;48.738;9.228;2023-07-13T09:42:07;22.50;1.00
336;DHT22;156;48.738;9.228;2023-07-13T09:44:52;22.50;1.00
336;DHT22;156;48.738;9.228;2023-07-13T09:47:24;22.70;1.00
336;DHT22;156;48.738;9.228;2023-07-13T09:49:56;22.70;1.00
336;DHT22;156;48.738;9.228;2023-07-13T09:52:26;22.80;1.00
336;DHT22;156;48.738;9.228;2023-07-13T09:54:55;23.10;1.00
336;DHT22;156;48.738;9.228;2023-07-13T09:57:26;23.00;1.00
336;DHT22;156;48.738;9.228;2023-07-13T09:59:55;23.20;1.00
336;DHT22;156;48.738;9.228;2023-07-13T10:02:27;22.90;1.00
336;DHT22;156;48.738;9.228;2023-07-13T10:04:58;22.70;1.00
336;DHT22;156;48.738;9.228;2023-07-13T10:07:31;22.60;1.00
336;DHT22;156;48.738;9.228;2023-07-13T10:10:00;22.70;1.00
336;DHT22;156;48.738;9.228;2023-07-13T10:12:29;22.70;1.00
336;DHT22;156;48.738;9.228;2023-07-13T10:14:59;22.90;1.00
336;DHT22;156;48.738;9.228;2023-07-13T10:17:29;23.00;1.00
336;DHT22;156;48.738;9.228;2023-07-13T10:19:59;23.20;1.00
336;DHT22;156;48.738;9.228;2023-07-13T10:22:37;23.30;1.00
336;DHT22;156;48.738;9.228;2023-07-13T10:25:20;23.30;1.00
336;DHT22;156;48.738;9.228;2023-07-13T10:27:52;23.10;1.00
336;DHT22;156;48.738;9.228;2023-07-13T10:30:22;23.30;1.00
336;DHT22;156;48.738;9.228;2023-07-13T10:32:54;23.50;1.00
336;DHT22;156;48.738;9.228;2023-07-13T10:35:22;23.60;1.00
336;DHT22;156;48.738;9.228;2023-07-13T10:37:55;23.70;1.00
336;DHT22;156;48.738;9.228;2023-07-13T10:40:30;23.80;1.00
336;DHT22;156;48.738;9.228;2023-07-13T10:43:01;23.60;1.00
336;DHT22;156;48.738;9.228;2023-07-13T10:45:31;23.60;1.00
336;DHT22;156;48.738;9.228;2023-07-13T10:48:01;23.30;1.00
336;DHT22;156;48.738;9.228;2023-07-13T10:50:30;23.30;1.00
336;DHT22;156;48.738;9.228;2023-07-13T10:53:15;23.50;1.00
336;DHT22;156;48.738;9.228;2023-07-13T10:55:56;23.30;1.00
336;DHT22;156;48.738;9.228;2023-07-13T10:58:33;23.40;1.00
336;DHT22;156;48.738;9.228;2023-07-13T11:01:07;23.10;1.00
336;DHT22;156;48.738;9.228;2023-07-13T11:03:46;23.30;1.00
336;DHT22;156;48.738;9.228;2023-07-13T11:06:36;23.30;1.00
336;DHT22;156;48.738;9.228;2023-07-13T11:09:36;23.70;1.00
336;DHT22;156;48.738;9.228;2023-07-13T11:12:25;23.70;1.00
336;DHT22;156;48.738;9.228;2023-07-13T11:15:11;23.80;1.00
336;DHT22;156;48.738;9.228;2023-07-13T11:17:48;23.90;1.00
336;DHT22;156;48.738;9.228;2023-07-13T11:23:27;24.20;1.00
336;DHT22;156;48.738;9.228;2023-07-13T11:25:57;24.20;1.00
336;DHT22;156;48.738;9.228;2023-07-13T11:28:29;23.90;1.00
336;DHT22;156;48.738;9.228;2023-07-13T11:31:04;24.10;1.00
336;DHT22;156;48.738;9.228;2023-07-13T11:33:57;24.40;1.00
336;DHT22;156;48.738;9.228;2023-07-13T11:36:30;24.30;1.00
336;DHT22;156;48.738;9.228;2023-07-13T11:39:03;24.30;1.00
336;DHT22;156;48.738;9.228;2023-07-13T11:41:36;24.50;1.00
336;DHT22;156;48.738;9.228;2023-07-13T11:44:10;24.80;1.00
336;DHT22;156;48.738;9.228;2023-07-13T11:46:38;24.90;1.00
336;DHT22;156;48.738;9.228;2023-07-13T11:49:07;24.40;1.00
336;DHT22;156;48.738;9.228;2023-07-13T11:51:41;24.20;1.00
336;DHT22;156;48.738;9.228;2023-07-13T11:54:20;23.80;1.00
336;DHT22;156;48.738;9.228;2023-07-13T11:56:51;24.00;1.00
336;DHT22;156;48.738;9.228;2023-07-13T11:59:20;23.80;1.00
336;DHT22;156;48.738;9.228;2023-07-13T12:01:52;23.80;1.00
336;DHT22;156;48.738;9.228;2023-07-13T12:04:23;23.70;1.00
336;DHT22;156;48.738;9.228;2023-07-13T12:06:56;23.80;1.00
336;DHT22;156;48.738;9.228;2023-07-13T12:09:26;23.90;1.00
336;DHT22;156;48.738;9.228;2023-07-13T12:11:57;24.30;1.00
336;DHT22;156;48.738;9.228;2023-07-13T12:14:28;24.50;1.00
336;DHT22;156;48.738;9.228;2023-07-13T12:16:56;24.60;1.00
336;DHT22;156;48.738;9.228;2023-07-13T12:19:25;24.60;1.00
336;DHT22;156;48.738;9.228;2023-07-13T12:21:55;24.50;1.00
336;DHT22;156;48.738;9.228;2023-07-13T12:24:24;24.50;1.00
336;DHT22;156;48.738;9.228;2023-07-13T12:26:52;24.40;1.00
336;DHT22;156;48.738;9.228;2023-07-13T12:29:23;24.60;1.00
336;DHT22;156;48.738;9.228;2023-07-13T12:31:50;24.50;1.00
336;DHT22;156;48.738;9.228;2023-07-13T12:34:20;24.70;1.00
336;DHT22;156;48.738;9.228;2023-07-13T12:36:49;24.90;1.00
336;DHT22;156;48.738;9.228;2023-07-13T12:39:19;24.90;1.00
336;DHT22;156;48.738;9.228;2023-07-13T12:41:50;25.00;1.00
336;DHT22;156;48.738;9.228;2023-07-13T12:44:28;25.20;1.00
336;DHT22;156;48.738;9.228;2023-07-13T12:46:59;25.10;1.00
336;DHT22;156;48.738;9.228;2023-07-13T12:49:32;25.70;1.00
336;DHT22;156;48.738;9.228;2023-07-13T12:52:03;26.20;1.00
336;DHT22;156;48.738;9.228;2023-07-13T12:54:31;26.50;1.00
336;DHT22;156;48.738;9.228;2023-07-13T12:57:00;26.30;1.00
336;DHT22;156;48.738;9.228;2023-07-13T12:59:32;25.80;1.00
336;DHT22;156;48.738;9.228;2023-07-13T13:02:22;25.30;1.00
336;DHT22;156;48.738;9.228;2023-07-13T13:04:52;25.00;1.00
336;DHT22;156;48.738;9.228;2023-07-13T13:07:21;24.70;1.00
336;DHT22;156;48.738;9.228;2023-07-13T13:09:48;25.10;1.00
336;DHT22;156;48.738;9.228;2023-07-13T13:12:15;25.50;1.00
336;DHT22;156;48.738;9.228;2023-07-13T13:14:44;25.70;1.00
336;DHT22;156;48.738;9.228;2023-07-13T13:17:19;25.90;1.00
336;DHT22;156;48.738;9.228;2023-07-13T13:19:47;26.70;1.00
336;DHT22;156;48.738;9.228;2023-07-13T13:22:17;26.60;1.00
336;DHT22;156;48.738;9.228;2023-07-13T13:24:45;26.80;1.00
336;DHT22;156;48.738;9.228;2023-07-13T13:27:16;27.60;1.00
336;DHT22;156;48.738;9.228;2023-07-13T13:29:46;27.50;1.00
336;DHT22;156;48.738;9.228;2023-07-13T13:32:15;27.30;1.00
336;DHT22;156;48.738;9.228;2023-07-13T13:34:43;27.30;1.00
336;DHT22;156;48.738;9.228;2023-07-13T13:37:17;26.80;1.00
336;DHT22;156;48.738;9.228;2023-07-13T13:39:45;26.50;1.00
336;DHT22;156;48.738;9.228;2023-07-13T13:42:14;26.20;1.00
336;DHT22;156;48.738;9.228;2023-07-13T13:44:41;26.00;1.00
336;DHT22;156;48.738;9.228;2023-07-13T13:47:29;26.50;1.00
336;DHT22;156;48.738;9.228;2023-07-13T13:49:57;26.30;1.00
336;DHT22;156;48.738;9.228;2023-07-13T13:52:26;26.60;1.00
336;DHT22;156;48.738;9.228;2023-07-13T13:54:53;26.60;1.00
336;DHT22;156;48.738;9.228;2023-07-13T13:57:22;26.80;1.00
336;DHT22;156;48.738;9.228;2023-07-13T13:59:50;26.60;1.00
336;DHT22;156;48.738;9.228;2023-07-13T14:02:26;26.60;1.00
336;DHT22;156;48.738;9.228;2023-07-13T14:04:56;26.50;1.00
336;DHT22;156;48.738;9.228;2023-07-13T14:07:24;26.20;1.00
336;DHT22;156;48.738;9.228;2023-07-13T14:09:52;26.20;1.00
336;DHT22;156;48.738;9.228;2023-07-13T14:12:19;26.60;1.00
336;DHT22;156;48.738;9.228;2023-07-13T14:14:47;26.40;1.00
336;DHT22;156;48.738;9.228;2023-07-13T14:17:21;26.20;1.00
336;DHT22;156;48.738;9.228;2023-07-13T14:19:54;25.90;1.00
336;DHT22;156;48.738;9.228;2023-07-13T14:22:23;25.90;1.00
336;DHT22;156;48.738;9.228;2023-07-13T14:24:52;26.30;1.00
336;DHT22;156;48.738;9.228;2023-07-13T14:27:21;26.80;1.00
336;DHT22;156;48.738;9.228;2023-07-13T14:29:50;26.80;1.00
336;DHT22;156;48.738;9.228;2023-07-13T14:32:19;25.90;1.00
336;DHT22;156;48.738;9.228;2023-07-13T14:34:49;25.80;1.00
336;DHT22;156;48.738;9.228;2023-07-13T14:37:19;25.50;1.00
336;DHT22;156;48.738;9.228;2023-07-13T14:39:48;25.20;1.00
336;DHT22;156;48.738;9.228;2023-07-13T14:42:16;25.00;1.00
336;DHT22;156;48.738;9.228;2023-07-13T14:44:46;24.90;1.00
336;DHT22;156;48.738;9.228;2023-07-13T14:47:18;23.80;1.00
336;DHT22;156;48.738;9.228;2023-07-13T14:49:47;24.70;1.00
336;DHT22;156;48.738;9.228;2023-07-13T14:52:19;24.70;1.00
336;DHT22;156;48.738;9.228;2023-07-13T14:54:47;24.90;1.00
336;DHT22;156;48.738;9.228;2023-07-13T14:57:16;25.10;1.00
336;DHT22;156;48.738;9.228;2023-07-13T14:59:44;25.00;1.00
336;DHT22;156;48.738;9.228;2023-07-13T15:02:16;24.90;1.00
336;DHT22;156;48.738;9.228;2023-07-13T15:04:45;24.70;1.00
336;DHT22;156;48.738;9.228;2023-07-13T15:07:13;25.30;1.00
336;DHT22;156;48.738;9.228;2023-07-13T15:09:46;25.50;1.00
336;DHT22;156;48.738;9.228;2023-07-13T15:12:14;25.40;1.00
336;DHT22;156;48.738;9.228;2023-07-13T15:14:41;25.20;1.00
336;DHT22;156;48.738;9.228;2023-07-13T15:17:22;25.30;1.00
336;DHT22;156;48.738;9.228;2023-07-13T15:19:51;24.90;1.00
336;DHT22;156;48.738;9.228;2023-07-13T15:22:18;24.70;1.00
336;DHT22;156;48.738;9.228;2023-07-13T15:24:48;24.60;1.00
336;DHT22;156;48.738;9.228;2023-07-13T15:27:15;24.80;1.00
336;DHT22;156;48.738;9.228;2023-07-13T15:29:43;25.40;1.00
336;DHT22;156;48.738;9.228;2023-07-13T15:32:13;25.90;1.00
336;DHT22;156;48.738;9.228;2023-07-13T15:34:42;26.00;1.00
336;DHT22;156;48.738;9.228;2023-07-13T15:37:14;26.60;1.00
336;DHT22;156;48.738;9.228;2023-07-13T15:39:42;26.60;1.00
336;DHT22;156;48.738;9.228;2023-07-13T15:42:15;26.30;1.00
336;DHT22;156;48.738;9.228;2023-07-13T15:44:44;26.60;1.00
336;DHT22;156;48.738;9.228;2023-07-13T15:47:15;26.00;1.00
336;DHT22;156;48.738;9.228;2023-07-13T15:49:43;25.80;1.00
336;DHT22;156;48.738;9.228;2023-07-13T15:52:16;25.90;1.00
336;DHT22;156;48.738;9.228;2023-07-13T15:54:45;25.90;1.00
336;DHT22;156;48.738;9.228;2023-07-13T15:57:14;26.30;1.00
336;DHT22;156;48.738;9.228;2023-07-13T15:59:42;27.00;1.00
336;DHT22;156;48.738;9.228;2023-07-13T16:02:14;27.20;1.00
336;DHT22;156;48.738;9.228;2023-07-13T16:04:42;27.20;1.00
336;DHT22;156;48.738;9.228;2023-07-13T16:07:10;27.30;1.00
336;DHT22;156;48.738;9.228;2023-07-13T16:09:39;27.50;1.00
336;DHT22;156;48.738;9.228;2023-07-13T16:12:10;26.90;1.00
336;DHT22;156;48.738;9.228;2023-07-13T16:14:41;27.10;1.00
336;DHT22;156;48.738;9.228;2023-07-13T16:17:09;26.60;1.00
336;DHT22;156;48.738;9.228;2023-07-13T16:19:37;26.70;1.00
336;DHT22;156;48.738;9.228;2023-07-13T16:22:05;26.90;1.00
336;DHT22;156;48.738;9.228;2023-07-13T16:24:32;27.40;1.00
336;DHT22;156;48.738;9.228;2023-07-13T16:27:03;28.00;1.00
336;DHT22;156;48.738;9.228;2023-07-13T16:29:30;28.00;1.00
336;DHT22;156;48.738;9.228;2023-07-13T16:32:01;27.60;1.00
336;DHT22;156;48.738;9.228;2023-07-13T16:34:29;27.40;1.00
336;DHT22;156;48.738;9.228;2023-07-13T16:36:57;27.50;1.00
336;DHT22;156;48.738;9.228;2023-07-13T16:39:48;27.60;1.00
336;DHT22;156;48.738;9.228;2023-07-13T16:42:18;27.70;1.00
336;DHT22;156;48.738;9.228;2023-07-13T16:44:45;27.90;1.00
336;DHT22;156;48.738;9.228;2023-07-13T16:47:15;27.90;1.00
336;DHT22;156;48.738;9.228;2023-07-13T16:49:43;28.10;1.00
336;DHT22;156;48.738;9.228;2023-07-13T16:52:14;28.50;1.00
336;DHT22;156;48.738;9.228;2023-07-13T16:54:45;28.50;1.00
336;DHT22;156;48.738;9.228;2023-07-13T16:57:14;27.90;1.00
336;DHT22;156;48.738;9.228;2023-07-13T16:59:45;27.50;1.00
336;DHT22;156;48.738;9.228;2023-07-13T17:02:32;27.50;1.00
336;DHT22;156;48.738;9.228;2023-07-13T17:05:00;27.50;1.00
336;DHT22;156;48.738;9.228;2023-07-13T17:07:28;27.30;1.00
336;DHT22;156;48.738;9.228;2023-07-13T17:09:56;27.50;1.00
336;DHT22;156;48.738;9.228;2023-07-13T17:12:26;27.50;1.00
336;DHT22;156;48.738;9.228;2023-07-13T17:14:52;26.90;1.00
336;DHT22;156;48.738;9.228;2023-07-13T17:17:31;26.90;1.00
336;DHT22;156;48.738;9.228;2023-07-13T17:20:00;27.00;1.00
336;DHT22;156;48.738;9.228;2023-07-13T17:22:28;27.20;1.00
336;DHT22;156;48.738;9.228;2023-07-13T17:24:55;27.10;1.00